Search for airport 
image banner adimage banner ad
image banner ad

ZYCC - Changchun / Longjia

Located in Changchun, China

ICAO - ZYCC, IATA - CGQ

Data provided by Airmate  

General information

Coordinates: N43°59'54" E125°41'18"
Elevation is 705 feet MSL.
 
Rated:
View ratings: [VIEW]


View others Airports in Jilin Province

Operational data

Open for public use
Current time UTC:
Current local time:
Weather
METAR: ZYCC 070000Z VRB01MPS 9999 SCT030 22/18 Q1009 NOSIG
TAF: TAF ZYCC 062119Z 0700/0724 03004MPS 6000 SCT030 TX29/0706Z TN18/0720Z
View NOTAMs / SUP AIP / TFR affecting this airport [VIEW]
Communications frequencies: [VIEW]

Runways:

RWY identifierQFULength (ft)Width (ft)SurfaceLDA (ft)
0649°10500148CON
24229°10499148

Airport contact information

Address: Changchun China

Satellite view of ZYCC